sensor_id;sensor_type;location;lat;lon;timestamp;P1;durP1;ratioP1;P2;durP2;ratioP2
22234;SDS011;11286;45.596;5.284;2022-09-01T00:00:38;9.02;;;5.63;;
22234;SDS011;11286;45.596;5.284;2022-09-01T00:03:06;8.43;;;5.47;;
22234;SDS011;11286;45.596;5.284;2022-09-01T00:05:34;7.18;;;5.45;;
22234;SDS011;11286;45.596;5.284;2022-09-01T00:08:01;5.88;;;5.38;;
22234;SDS011;11286;45.596;5.284;2022-09-01T00:10:28;7.72;;;5.50;;
22234;SDS011;11286;45.596;5.284;2022-09-01T00:12:53;8.18;;;5.40;;
22234;SDS011;11286;45.596;5.284;2022-09-01T00:15:19;7.00;;;5.20;;
22234;SDS011;11286;45.596;5.284;2022-09-01T00:17:45;10.20;;;5.20;;
22234;SDS011;11286;45.596;5.284;2022-09-01T00:20:10;8.05;;;5.60;;
22234;SDS011;11286;45.596;5.284;2022-09-01T00:22:36;7.10;;;5.10;;
22234;SDS011;11286;45.596;5.284;2022-09-01T00:25:02;7.55;;;5.97;;
22234;SDS011;11286;45.596;5.284;2022-09-01T00:27:30;7.13;;;5.50;;
22234;SDS011;11286;45.596;5.284;2022-09-01T00:29:55;9.68;;;5.95;;
22234;SDS011;11286;45.596;5.284;2022-09-01T00:32:21;6.35;;;5.38;;
22234;SDS011;11286;45.596;5.284;2022-09-01T00:34:46;7.25;;;6.07;;
22234;SDS011;11286;45.596;5.284;2022-09-01T00:37:12;8.23;;;5.45;;
22234;SDS011;11286;45.596;5.284;2022-09-01T00:39:38;5.75;;;5.25;;
22234;SDS011;11286;45.596;5.284;2022-09-01T00:42:03;10.20;;;5.40;;
22234;SDS011;11286;45.596;5.284;2022-09-01T00:44:29;6.28;;;5.25;;
22234;SDS011;11286;45.596;5.284;2022-09-01T00:46:55;10.57;;;5.22;;
22234;SDS011;11286;45.596;5.284;2022-09-01T00:49:24;6.72;;;5.63;;
22234;SDS011;11286;45.596;5.284;2022-09-01T00:51:58;8.30;;;5.38;;
22234;SDS011;11286;45.596;5.284;2022-09-01T00:54:33;6.57;;;5.50;;
22234;SDS011;11286;45.596;5.284;2022-09-01T00:57:03;6.18;;;5.57;;
22234;SDS011;11286;45.596;5.284;2022-09-01T00:59:32;7.25;;;4.75;;
22234;SDS011;11286;45.596;5.284;2022-09-01T01:01:59;6.40;;;5.32;;
22234;SDS011;11286;45.596;5.284;2022-09-01T01:04:25;8.70;;;5.60;;
22234;SDS011;11286;45.596;5.284;2022-09-01T01:06:54;5.45;;;4.95;;
22234;SDS011;11286;45.596;5.284;2022-09-01T01:09:25;6.72;;;5.15;;
22234;SDS011;11286;45.596;5.284;2022-09-01T01:11:55;7.85;;;5.63;;
22234;SDS011;11286;45.596;5.284;2022-09-01T01:14:24;7.82;;;6.45;;
22234;SDS011;11286;45.596;5.284;2022-09-01T01:16:56;8.25;;;5.70;;
22234;SDS011;11286;45.596;5.284;2022-09-01T01:19:42;6.63;;;5.63;;
22234;SDS011;11286;45.596;5.284;2022-09-01T01:31:17;6.50;;;5.90;;
22234;SDS011;11286;45.596;5.284;2022-09-01T01:33:47;7.68;;;5.93;;
22234;SDS011;11286;45.596;5.284;2022-09-01T01:36:25;8.68;;;5.88;;
22234;SDS011;11286;45.596;5.284;2022-09-01T01:38:57;7.22;;;5.97;;
22234;SDS011;11286;45.596;5.284;2022-09-01T01:41:26;7.85;;;5.88;;
22234;SDS011;11286;45.596;5.284;2022-09-01T01:43:54;10.32;;;6.38;;
22234;SDS011;11286;45.596;5.284;2022-09-01T01:46:23;6.40;;;5.80;;
22234;SDS011;11286;45.596;5.284;2022-09-01T01:48:50;9.63;;;5.35;;
22234;SDS011;11286;45.596;5.284;2022-09-01T01:51:16;8.40;;;5.05;;
22234;SDS011;11286;45.596;5.284;2022-09-01T01:53:45;8.23;;;5.28;;
22234;SDS011;11286;45.596;5.284;2022-09-01T01:56:16;6.55;;;5.88;;
22234;SDS011;11286;45.596;5.284;2022-09-01T01:58:43;7.18;;;5.63;;
22234;SDS011;11286;45.596;5.284;2022-09-01T02:01:09;7.82;;;5.53;;
22234;SDS011;11286;45.596;5.284;2022-09-01T02:03:36;8.93;;;5.32;;
22234;SDS011;11286;45.596;5.284;2022-09-01T02:06:04;6.50;;;5.47;;
22234;SDS011;11286;45.596;5.284;2022-09-01T02:08:35;5.80;;;5.22;;
22234;SDS011;11286;45.596;5.284;2022-09-01T02:11:02;6.20;;;5.60;;
22234;SDS011;11286;45.596;5.284;2022-09-01T02:13:29;5.80;;;5.00;;
22234;SDS011;11286;45.596;5.284;2022-09-01T02:15:56;7.50;;;4.50;;
22234;SDS011;11286;45.596;5.284;2022-09-01T02:18:26;5.30;;;4.80;;
22234;SDS011;11286;45.596;5.284;2022-09-01T02:21:04;5.63;;;4.40;;
22234;SDS011;11286;45.596;5.284;2022-09-01T02:23:35;7.07;;;5.30;;
22234;SDS011;11286;45.596;5.284;2022-09-01T02:26:02;5.35;;;4.80;;
22234;SDS011;11286;45.596;5.284;2022-09-01T02:28:30;5.97;;;5.00;;
22234;SDS011;11286;45.596;5.284;2022-09-01T02:31:01;4.95;;;4.55;;
22234;SDS011;11286;45.596;5.284;2022-09-01T02:33:28;6.97;;;4.70;;
22234;SDS011;11286;45.596;5.284;2022-09-01T02:35:56;5.00;;;4.60;;
22234;SDS011;11286;45.596;5.284;2022-09-01T02:38:26;5.65;;;4.72;;
22234;SDS011;11286;45.596;5.284;2022-09-01T02:40:53;6.07;;;5.00;;
22234;SDS011;11286;45.596;5.284;2022-09-01T02:43:20;8.80;;;4.88;;
22234;SDS011;11286;45.596;5.284;2022-09-01T02:45:50;6.75;;;4.80;;
22234;SDS011;11286;45.596;5.284;2022-09-01T02:48:41;6.85;;;5.40;;
22234;SDS011;11286;45.596;5.284;2022-09-01T02:51:08;5.82;;;4.97;;
22234;SDS011;11286;45.596;5.284;2022-09-01T02:53:36;7.07;;;4.85;;
22234;SDS011;11286;45.596;5.284;2022-09-01T02:56:04;6.07;;;4.57;;
22234;SDS011;11286;45.596;5.284;2022-09-01T02:58:41;5.10;;;4.60;;
22234;SDS011;11286;45.596;5.284;2022-09-01T03:03:49;5.50;;;5.00;;
22234;SDS011;11286;45.596;5.284;2022-09-01T03:06:17;5.72;;;5.30;;
22234;SDS011;11286;45.596;5.284;2022-09-01T03:08:44;6.18;;;5.20;;
22234;SDS011;11286;45.596;5.284;2022-09-01T03:11:11;5.43;;;4.93;;
22234;SDS011;11286;45.596;5.284;2022-09-01T03:13:37;9.98;;;5.43;;
22234;SDS011;11286;45.596;5.284;2022-09-01T03:16:05;5.93;;;5.40;;
22234;SDS011;11286;45.596;5.284;2022-09-01T03:18:31;6.03;;;5.45;;
22234;SDS011;11286;45.596;5.284;2022-09-01T03:20:58;7.25;;;5.25;;
22234;SDS011;11286;45.596;5.284;2022-09-01T03:23:26;5.70;;;5.20;;
22234;SDS011;11286;45.596;5.284;2022-09-01T03:25:58;7.05;;;5.30;;
22234;SDS011;11286;45.596;5.284;2022-09-01T03:28:24;5.90;;;5.40;;
22234;SDS011;11286;45.596;5.284;2022-09-01T03:30:51;6.25;;;5.63;;
22234;SDS011;11286;45.596;5.284;2022-09-01T03:33:19;8.20;;;5.53;;
22234;SDS011;11286;45.596;5.284;2022-09-01T03:35:45;6.00;;;5.43;;
22234;SDS011;11286;45.596;5.284;2022-09-01T03:38:12;6.63;;;5.43;;
22234;SDS011;11286;45.596;5.284;2022-09-01T03:40:48;8.70;;;5.72;;
22234;SDS011;11286;45.596;5.284;2022-09-01T03:43:16;6.07;;;5.47;;
22234;SDS011;11286;45.596;5.284;2022-09-01T03:45:44;5.90;;;5.32;;
22234;SDS011;11286;45.596;5.284;2022-09-01T03:48:10;8.98;;;5.28;;
22234;SDS011;11286;45.596;5.284;2022-09-01T03:50:39;5.97;;;5.40;;
22234;SDS011;11286;45.596;5.284;2022-09-01T03:53:11;6.80;;;5.28;;
22234;SDS011;11286;45.596;5.284;2022-09-01T03:55:38;6.22;;;5.60;;
22234;SDS011;11286;45.596;5.284;2022-09-01T03:58:05;5.63;;;5.22;;
22234;SDS011;11286;45.596;5.284;2022-09-01T04:00:34;5.63;;;5.13;;
22234;SDS011;11286;45.596;5.284;2022-09-01T04:03:03;7.47;;;5.38;;
22234;SDS011;11286;45.596;5.284;2022-09-01T04:05:32;6.05;;;5.45;;
22234;SDS011;11286;45.596;5.284;2022-09-01T04:08:00;5.97;;;5.38;;
22234;SDS011;11286;45.596;5.284;2022-09-01T04:10:34;8.32;;;6.15;;
22234;SDS011;11286;45.596;5.284;2022-09-01T04:13:02;5.85;;;5.35;;
22234;SDS011;11286;45.596;5.284;2022-09-01T04:15:29;6.05;;;5.55;;
22234;SDS011;11286;45.596;5.284;2022-09-01T04:17:56;7.28;;;5.68;;
22234;SDS011;11286;45.596;5.284;2022-09-01T04:20:38;8.07;;;6.03;;
22234;SDS011;11286;45.596;5.284;2022-09-01T04:23:15;5.85;;;5.40;;
22234;SDS011;11286;45.596;5.284;2022-09-01T04:25:48;6.53;;;5.88;;
22234;SDS011;11286;45.596;5.284;2022-09-01T04:28:14;6.38;;;5.72;;
22234;SDS011;11286;45.596;5.284;2022-09-01T04:30:48;7.13;;;5.85;;
22234;SDS011;11286;45.596;5.284;2022-09-01T04:33:20;7.93;;;5.90;;
22234;SDS011;11286;45.596;5.284;2022-09-01T04:36:02;8.05;;;6.07;;
22234;SDS011;11286;45.596;5.284;2022-09-01T04:38:29;7.18;;;6.20;;
22234;SDS011;11286;45.596;5.284;2022-09-01T04:40:55;9.95;;;5.95;;
22234;SDS011;11286;45.596;5.284;2022-09-01T04:43:24;8.45;;;6.38;;
22234;SDS011;11286;45.596;5.284;2022-09-01T04:45:50;9.57;;;5.95;;
22234;SDS011;11286;45.596;5.284;2022-09-01T04:48:18;7.50;;;6.20;;
22234;SDS011;11286;45.596;5.284;2022-09-01T04:50:44;6.68;;;5.90;;
22234;SDS011;11286;45.596;5.284;2022-09-01T04:53:11;7.05;;;6.13;;
22234;SDS011;11286;45.596;5.284;2022-09-01T04:55:37;8.73;;;6.70;;
22234;SDS011;11286;45.596;5.284;2022-09-01T04:58:07;9.55;;;6.43;;
22234;SDS011;11286;45.596;5.284;2022-09-01T05:00:37;10.32;;;6.35;;
22234;SDS011;11286;45.596;5.284;2022-09-01T05:03:04;8.25;;;5.93;;
22234;SDS011;11286;45.596;5.284;2022-09-01T05:05:38;6.88;;;6.07;;
22234;SDS011;11286;45.596;5.284;2022-09-01T05:08:07;8.40;;;6.38;;
22234;SDS011;11286;45.596;5.284;2022-09-01T05:10:39;7.30;;;6.45;;
22234;SDS011;11286;45.596;5.284;2022-09-01T05:13:13;8.55;;;6.68;;
22234;SDS011;11286;45.596;5.284;2022-09-01T05:15:41;9.30;;;7.45;;
22234;SDS011;11286;45.596;5.284;2022-09-01T05:18:14;8.02;;;6.97;;
22234;SDS011;11286;45.596;5.284;2022-09-01T05:20:47;9.32;;;7.68;;
22234;SDS011;11286;45.596;5.284;2022-09-01T05:23:14;11.32;;;6.95;;
22234;SDS011;11286;45.596;5.284;2022-09-01T05:25:43;8.65;;;6.95;;
22234;SDS011;11286;45.596;5.284;2022-09-01T05:28:11;9.32;;;7.38;;
22234;SDS011;11286;45.596;5.284;2022-09-01T05:30:37;7.97;;;7.22;;
22234;SDS011;11286;45.596;5.284;2022-09-01T05:33:05;8.65;;;7.82;;
22234;SDS011;11286;45.596;5.284;2022-09-01T05:35:37;8.68;;;7.50;;
22234;SDS011;11286;45.596;5.284;2022-09-01T05:38:06;9.15;;;6.80;;
22234;SDS011;11286;45.596;5.284;2022-09-01T05:40:35;13.20;;;7.72;;
22234;SDS011;11286;45.596;5.284;2022-09-01T05:43:04;8.63;;;7.18;;
22234;SDS011;11286;45.596;5.284;2022-09-01T05:45:34;11.70;;;7.25;;
22234;SDS011;11286;45.596;5.284;2022-09-01T05:48:00;9.90;;;7.75;;
22234;SDS011;11286;45.596;5.284;2022-09-01T05:50:27;8.18;;;6.75;;
22234;SDS011;11286;45.596;5.284;2022-09-01T05:52:53;8.05;;;7.18;;
22234;SDS011;11286;45.596;5.284;2022-09-01T05:55:18;9.55;;;7.20;;
22234;SDS011;11286;45.596;5.284;2022-09-01T05:57:44;8.00;;;6.88;;
22234;SDS011;11286;45.596;5.284;2022-09-01T06:00:12;11.55;;;7.13;;
22234;SDS011;11286;45.596;5.284;2022-09-01T06:02:39;9.15;;;7.40;;
22234;SDS011;11286;45.596;5.284;2022-09-01T06:05:06;11.93;;;6.72;;
22234;SDS011;11286;45.596;5.284;2022-09-01T06:07:33;10.95;;;7.88;;
22234;SDS011;11286;45.596;5.284;2022-09-01T06:10:05;8.35;;;7.43;;
22234;SDS011;11286;45.596;5.284;2022-09-01T06:12:31;10.63;;;8.07;;
22234;SDS011;11286;45.596;5.284;2022-09-01T06:14:57;11.38;;;7.95;;
22234;SDS011;11286;45.596;5.284;2022-09-01T06:17:24;9.55;;;7.93;;
22234;SDS011;11286;45.596;5.284;2022-09-01T06:19:51;8.93;;;7.80;;
22234;SDS011;11286;45.596;5.284;2022-09-01T06:22:21;12.07;;;7.07;;
22234;SDS011;11286;45.596;5.284;2022-09-01T06:24:49;9.18;;;7.50;;
22234;SDS011;11286;45.596;5.284;2022-09-01T06:27:16;11.65;;;8.13;;
22234;SDS011;11286;45.596;5.284;2022-09-01T06:29:44;12.75;;;8.00;;
22234;SDS011;11286;45.596;5.284;2022-09-01T06:32:13;9.75;;;8.70;;
22234;SDS011;11286;45.596;5.284;2022-09-01T06:34:40;12.57;;;7.93;;
22234;SDS011;11286;45.596;5.284;2022-09-01T06:37:07;10.30;;;7.57;;
22234;SDS011;11286;45.596;5.284;2022-09-01T06:39:33;8.85;;;7.95;;
22234;SDS011;11286;45.596;5.284;2022-09-01T06:41:59;13.15;;;8.23;;
22234;SDS011;11286;45.596;5.284;2022-09-01T06:44:26;11.48;;;8.48;;
22234;SDS011;11286;45.596;5.284;2022-09-01T06:46:54;10.20;;;8.30;;
22234;SDS011;11286;45.596;5.284;2022-09-01T06:49:20;14.23;;;7.97;;
22234;SDS011;11286;45.596;5.284;2022-09-01T06:51:53;8.40;;;7.55;;
22234;SDS011;11286;45.596;5.284;2022-09-01T06:54:19;9.35;;;7.68;;
22234;SDS011;11286;45.596;5.284;2022-09-01T06:56:45;11.77;;;8.20;;
22234;SDS011;11286;45.596;5.284;2022-09-01T06:59:11;10.77;;;7.80;;
22234;SDS011;11286;45.596;5.284;2022-09-01T07:01:39;10.45;;;8.38;;
22234;SDS011;11286;45.596;5.284;2022-09-01T07:04:05;10.50;;;9.13;;
22234;SDS011;11286;45.596;5.284;2022-09-01T07:06:31;11.07;;;9.73;;
22234;SDS011;11286;45.596;5.284;2022-09-01T07:08:57;12.68;;;9.75;;
22234;SDS011;11286;45.596;5.284;2022-09-01T07:11:25;13.38;;;9.15;;
22234;SDS011;11286;45.596;5.284;2022-09-01T07:13:54;11.98;;;9.15;;
22234;SDS011;11286;45.596;5.284;2022-09-01T07:16:26;12.02;;;10.60;;
22234;SDS011;11286;45.596;5.284;2022-09-01T07:18:56;11.27;;;10.07;;
22234;SDS011;11286;45.596;5.284;2022-09-01T07:21:25;15.10;;;9.50;;
22234;SDS011;11286;45.596;5.284;2022-09-01T07:23:53;10.60;;;8.95;;
22234;SDS011;11286;45.596;5.284;2022-09-01T07:26:19;11.75;;;9.82;;
22234;SDS011;11286;45.596;5.284;2022-09-01T07:28:47;15.15;;;8.93;;
22234;SDS011;11286;45.596;5.284;2022-09-01T07:31:27;10.02;;;9.10;;
22234;SDS011;11286;45.596;5.284;2022-09-01T07:33:57;11.18;;;9.35;;
22234;SDS011;11286;45.596;5.284;2022-09-01T07:36:24;11.13;;;10.02;;
22234;SDS011;11286;45.596;5.284;2022-09-01T07:38:50;13.68;;;9.68;;
22234;SDS011;11286;45.596;5.284;2022-09-01T07:41:21;11.18;;;9.98;;
22234;SDS011;11286;45.596;5.284;2022-09-01T07:43:49;11.88;;;9.60;;
22234;SDS011;11286;45.596;5.284;2022-09-01T07:46:20;17.75;;;10.48;;
22234;SDS011;11286;45.596;5.284;2022-09-01T07:48:48;12.13;;;9.63;;
22234;SDS011;11286;45.596;5.284;2022-09-01T07:51:16;11.85;;;10.10;;
22234;SDS011;11286;45.596;5.284;2022-09-01T07:53:44;10.48;;;9.48;;
22234;SDS011;11286;45.596;5.284;2022-09-01T07:56:12;11.20;;;10.20;;
22234;SDS011;11286;45.596;5.284;2022-09-01T07:58:39;12.20;;;9.75;;
22234;SDS011;11286;45.596;5.284;2022-09-01T08:01:09;10.65;;;9.25;;
22234;SDS011;11286;45.596;5.284;2022-09-01T08:03:38;12.27;;;9.52;;
22234;SDS011;11286;45.596;5.284;2022-09-01T08:06:06;14.60;;;9.82;;
22234;SDS011;11286;45.596;5.284;2022-09-01T08:08:34;9.70;;;8.70;;
22234;SDS011;11286;45.596;5.284;2022-09-01T08:11:01;11.18;;;10.15;;
22234;SDS011;11286;45.596;5.284;2022-09-01T08:13:28;10.07;;;8.95;;
22234;SDS011;11286;45.596;5.284;2022-09-01T08:15:53;11.35;;;8.95;;
22234;SDS011;11286;45.596;5.284;2022-09-01T08:18:19;9.68;;;8.88;;
22234;SDS011;11286;45.596;5.284;2022-09-01T08:20:45;11.75;;;8.93;;
22234;SDS011;11286;45.596;5.284;2022-09-01T08:23:14;12.65;;;9.15;;
22234;SDS011;11286;45.596;5.284;2022-09-01T08:25:42;10.43;;;8.57;;
22234;SDS011;11286;45.596;5.284;2022-09-01T08:28:09;9.52;;;8.63;;
22234;SDS011;11286;45.596;5.284;2022-09-01T08:30:37;9.30;;;8.27;;
22234;SDS011;11286;45.596;5.284;2022-09-01T08:33:03;9.48;;;8.57;;
22234;SDS011;11286;45.596;5.284;2022-09-01T08:35:29;8.68;;;7.90;;
22234;SDS011;11286;45.596;5.284;2022-09-01T08:37:55;7.53;;;6.93;;
22234;SDS011;11286;45.596;5.284;2022-09-01T08:40:22;10.70;;;8.35;;
22234;SDS011;11286;45.596;5.284;2022-09-01T08:45:30;8.25;;;6.10;;
22234;SDS011;11286;45.596;5.284;2022-09-01T08:47:59;6.05;;;5.50;;
22234;SDS011;11286;45.596;5.284;2022-09-01T08:50:36;6.60;;;6.00;;
22234;SDS011;11286;45.596;5.284;2022-09-01T08:53:16;6.43;;;5.70;;
22234;SDS011;11286;45.596;5.284;2022-09-01T08:56:01;6.45;;;5.85;;
22234;SDS011;11286;45.596;5.284;2022-09-01T08:58:30;6.50;;;5.88;;
22234;SDS011;11286;45.596;5.284;2022-09-01T09:01:03;6.53;;;5.75;;
22234;SDS011;11286;45.596;5.284;2022-09-01T09:09:20;8.68;;;5.47;;
22234;SDS011;11286;45.596;5.284;2022-09-01T09:12:07;8.18;;;5.65;;
22234;SDS011;11286;45.596;5.284;2022-09-01T09:17:43;5.97;;;5.47;;
22234;SDS011;11286;45.596;5.284;2022-09-01T09:20:17;5.70;;;5.20;;
22234;SDS011;11286;45.596;5.284;2022-09-01T09:22:43;6.40;;;5.72;;
22234;SDS011;11286;45.596;5.284;2022-09-01T09:25:12;6.07;;;5.47;;
22234;SDS011;11286;45.596;5.284;2022-09-01T09:27:41;6.25;;;5.50;;
22234;SDS011;11286;45.596;5.284;2022-09-01T09:30:13;5.68;;;5.18;;
22234;SDS011;11286;45.596;5.284;2022-09-01T09:32:52;5.50;;;5.10;;
22234;SDS011;11286;45.596;5.284;2022-09-01T09:40:55;5.90;;;4.90;;
22234;SDS011;11286;45.596;5.284;2022-09-01T09:43:32;6.47;;;5.57;;
22234;SDS011;11286;45.596;5.284;2022-09-01T09:51:44;5.18;;;4.60;;
22234;SDS011;11286;45.596;5.284;2022-09-01T09:54:19;5.15;;;4.65;;
22234;SDS011;11286;45.596;5.284;2022-09-01T10:02:27;5.63;;;4.47;;
22234;SDS011;11286;45.596;5.284;2022-09-01T10:04:58;4.45;;;4.05;;
22234;SDS011;11286;45.596;5.284;2022-09-01T10:09:55;4.85;;;4.05;;
22234;SDS011;11286;45.596;5.284;2022-09-01T10:12:22;6.15;;;4.05;;
22234;SDS011;11286;45.596;5.284;2022-09-01T10:14:57;5.32;;;4.75;;
22234;SDS011;11286;45.596;5.284;2022-09-01T10:17:37;5.10;;;4.70;;
22234;SDS011;11286;45.596;5.284;2022-09-01T10:20:27;5.07;;;4.57;;
22234;SDS011;11286;45.596;5.284;2022-09-01T10:22:52;4.93;;;4.53;;
22234;SDS011;11286;45.596;5.284;2022-09-01T10:25:19;4.47;;;4.07;;
22234;SDS011;11286;45.596;5.284;2022-09-01T10:27:48;4.60;;;4.20;;
22234;SDS011;11286;45.596;5.284;2022-09-01T10:30:17;6.50;;;4.13;;
22234;SDS011;11286;45.596;5.284;2022-09-01T10:38:02;3.88;;;3.58;;
22234;SDS011;11286;45.596;5.284;2022-09-01T10:45:52;3.92;;;3.63;;
22234;SDS011;11286;45.596;5.284;2022-09-01T10:50:44;4.03;;;3.70;;
22234;SDS011;11286;45.596;5.284;2022-09-01T10:53:36;3.83;;;3.53;;
22234;SDS011;11286;45.596;5.284;2022-09-01T11:01:08;3.47;;;3.28;;
22234;SDS011;11286;45.596;5.284;2022-09-01T11:03:50;3.60;;;3.30;;
22234;SDS011;11286;45.596;5.284;2022-09-01T11:06:30;3.78;;;3.45;;
22234;SDS011;11286;45.596;5.284;2022-09-01T11:09:05;4.03;;;3.17;;
22234;SDS011;11286;45.596;5.284;2022-09-01T11:14:27;4.03;;;3.40;;
22234;SDS011;11286;45.596;5.284;2022-09-01T11:19:40;3.63;;;3.20;;
22234;SDS011;11286;45.596;5.284;2022-09-01T11:24:44;3.80;;;3.50;;
22234;SDS011;11286;45.596;5.284;2022-09-01T11:28:34;5.45;;;4.10;;
22234;SDS011;11286;45.596;5.284;2022-09-01T11:30:32;3.80;;;3.50;;
22234;SDS011;11286;45.596;5.284;2022-09-01T11:38:27;4.18;;;3.78;;
22234;SDS011;11286;45.596;5.284;2022-09-01T11:40:56;3.85;;;3.50;;
22234;SDS011;11286;45.596;5.284;2022-09-01T11:43:22;3.65;;;3.35;;
22234;SDS011;11286;45.596;5.284;2022-09-01T11:45:54;4.47;;;3.58;;
22234;SDS011;11286;45.596;5.284;2022-09-01T11:48:44;3.63;;;3.25;;
22234;SDS011;11286;45.596;5.284;2022-09-01T11:51:12;3.70;;;3.40;;
22234;SDS011;11286;45.596;5.284;2022-09-01T11:53:39;3.97;;;3.60;;
22234;SDS011;11286;45.596;5.284;2022-09-01T11:56:17;4.00;;;3.65;;
22234;SDS011;11286;45.596;5.284;2022-09-01T11:58:48;3.78;;;3.15;;
22234;SDS011;11286;45.596;5.284;2022-09-01T12:01:18;3.72;;;3.42;;
22234;SDS011;11286;45.596;5.284;2022-09-01T12:03:47;3.85;;;3.58;;
22234;SDS011;11286;45.596;5.284;2022-09-01T12:06:21;3.72;;;3.42;;
22234;SDS011;11286;45.596;5.284;2022-09-01T12:08:54;3.38;;;3.17;;
22234;SDS011;11286;45.596;5.284;2022-09-01T12:11:26;3.67;;;3.35;;
22234;SDS011;11286;45.596;5.284;2022-09-01T12:16:22;4.22;;;3.60;;
22234;SDS011;11286;45.596;5.284;2022-09-01T12:18:49;4.90;;;3.33;;
22234;SDS011;11286;45.596;5.284;2022-09-01T12:21:18;5.80;;;3.40;;
22234;SDS011;11286;45.596;5.284;2022-09-01T12:24:16;3.63;;;3.25;;
22234;SDS011;11286;45.596;5.284;2022-09-01T12:26:47;4.07;;;3.20;;
22234;SDS011;11286;45.596;5.284;2022-09-01T12:29:18;3.95;;;3.10;;
22234;SDS011;11286;45.596;5.284;2022-09-01T12:31:45;3.30;;;3.00;;
22234;SDS011;11286;45.596;5.284;2022-09-01T12:37:02;5.55;;;3.10;;
22234;SDS011;11286;45.596;5.284;2022-09-01T12:39:40;3.40;;;3.03;;
22234;SDS011;11286;45.596;5.284;2022-09-01T12:49:59;3.67;;;2.72;;
22234;SDS011;11286;45.596;5.284;2022-09-01T12:52:34;3.00;;;2.80;;
22234;SDS011;11286;45.596;5.284;2022-09-01T12:55:11;3.30;;;2.78;;
22234;SDS011;11286;45.596;5.284;2022-09-01T12:57:45;3.95;;;2.80;;
22234;SDS011;11286;45.596;5.284;2022-09-01T13:00:21;3.05;;;2.85;;
22234;SDS011;11286;45.596;5.284;2022-09-01T13:02:48;2.83;;;2.63;;
22234;SDS011;11286;45.596;5.284;2022-09-01T13:07:45;3.80;;;2.60;;
22234;SDS011;11286;45.596;5.284;2022-09-01T13:10:11;2.67;;;2.47;;
22234;SDS011;11286;45.596;5.284;2022-09-01T13:12:40;2.60;;;2.40;;
22234;SDS011;11286;45.596;5.284;2022-09-01T13:15:06;2.47;;;2.30;;
22234;SDS011;11286;45.596;5.284;2022-09-01T13:17:33;2.40;;;2.20;;
22234;SDS011;11286;45.596;5.284;2022-09-01T13:19:59;2.80;;;2.60;;
22234;SDS011;11286;45.596;5.284;2022-09-01T13:22:24;4.35;;;2.40;;
22234;SDS011;11286;45.596;5.284;2022-09-01T13:24:50;2.50;;;2.30;;
22234;SDS011;11286;45.596;5.284;2022-09-01T13:27:16;3.28;;;2.42;;
22234;SDS011;11286;45.596;5.284;2022-09-01T13:29:41;2.20;;;2.00;;
22234;SDS011;11286;45.596;5.284;2022-09-01T13:32:07;3.60;;;2.25;;
22234;SDS011;11286;45.596;5.284;2022-09-01T13:34:33;2.20;;;2.10;;
22234;SDS011;11286;45.596;5.284;2022-09-01T13:36:59;2.88;;;2.60;;
22234;SDS011;11286;45.596;5.284;2022-09-01T13:39:25;2.53;;;2.33;;
22234;SDS011;11286;45.596;5.284;2022-09-01T13:41:50;3.22;;;2.33;;
22234;SDS011;11286;45.596;5.284;2022-09-01T13:44:16;2.60;;;2.40;;
22234;SDS011;11286;45.596;5.284;2022-09-01T13:46:43;2.70;;;2.40;;
22234;SDS011;11286;45.596;5.284;2022-09-01T13:49:09;2.40;;;2.20;;
22234;SDS011;11286;45.596;5.284;2022-09-01T13:51:36;2.65;;;2.00;;
22234;SDS011;11286;45.596;5.284;2022-09-01T13:54:02;2.47;;;2.28;;
22234;SDS011;11286;45.596;5.284;2022-09-01T13:56:27;3.30;;;2.40;;
22234;SDS011;11286;45.596;5.284;2022-09-01T13:58:53;2.45;;;2.28;;
22234;SDS011;11286;45.596;5.284;2022-09-01T14:01:19;3.42;;;2.67;;
22234;SDS011;11286;45.596;5.284;2022-09-01T14:03:45;2.53;;;2.33;;
22234;SDS011;11286;45.596;5.284;2022-09-01T14:06:12;2.42;;;2.22;;
22234;SDS011;11286;45.596;5.284;2022-09-01T14:08:38;2.92;;;2.60;;
22234;SDS011;11286;45.596;5.284;2022-09-01T14:11:04;3.25;;;2.40;;
22234;SDS011;11286;45.596;5.284;2022-09-01T14:13:30;2.78;;;2.28;;
22234;SDS011;11286;45.596;5.284;2022-09-01T14:15:56;6.07;;;2.30;;
22234;SDS011;11286;45.596;5.284;2022-09-01T14:18:22;2.38;;;2.17;;
22234;SDS011;11286;45.596;5.284;2022-09-01T14:20:49;2.95;;;2.10;;
22234;SDS011;11286;45.596;5.284;2022-09-01T14:23:16;2.90;;;2.20;;
22234;SDS011;11286;45.596;5.284;2022-09-01T14:25:47;2.25;;;2.05;;
22234;SDS011;11286;45.596;5.284;2022-09-01T14:28:14;3.00;;;2.50;;
22234;SDS011;11286;45.596;5.284;2022-09-01T14:30:41;2.10;;;2.00;;
22234;SDS011;11286;45.596;5.284;2022-09-01T14:33:07;2.50;;;2.30;;
22234;SDS011;11286;45.596;5.284;2022-09-01T14:35:35;2.63;;;2.42;;
22234;SDS011;11286;45.596;5.284;2022-09-01T14:38:05;2.50;;;2.20;;
22234;SDS011;11286;45.596;5.284;2022-09-01T14:40:32;4.22;;;2.30;;
22234;SDS011;11286;45.596;5.284;2022-09-01T14:43:01;2.42;;;2.22;;
22234;SDS011;11286;45.596;5.284;2022-09-01T14:45:29;2.42;;;2.30;;
22234;SDS011;11286;45.596;5.284;2022-09-01T14:47:56;2.40;;;2.20;;
22234;SDS011;11286;45.596;5.284;2022-09-01T14:50:25;2.53;;;2.33;;
22234;SDS011;11286;45.596;5.284;2022-09-01T14:52:53;2.70;;;2.50;;
22234;SDS011;11286;45.596;5.284;2022-09-01T14:55:21;2.80;;;2.60;;
22234;SDS011;11286;45.596;5.284;2022-09-01T14:57:47;3.00;;;2.10;;
22234;SDS011;11286;45.596;5.284;2022-09-01T15:00:13;4.10;;;2.28;;
22234;SDS011;11286;45.596;5.284;2022-09-01T15:02:40;2.10;;;2.00;;
22234;SDS011;11286;45.596;5.284;2022-09-01T15:05:08;2.35;;;2.17;;
22234;SDS011;11286;45.596;5.284;2022-09-01T15:07:35;2.20;;;2.10;;
22234;SDS011;11286;45.596;5.284;2022-09-01T15:10:02;3.05;;;2.00;;
22234;SDS011;11286;45.596;5.284;2022-09-01T15:12:28;2.25;;;2.05;;
22234;SDS011;11286;45.596;5.284;2022-09-01T15:14:55;2.30;;;2.20;;
22234;SDS011;11286;45.596;5.284;2022-09-01T15:17:25;2.90;;;2.30;;
22234;SDS011;11286;45.596;5.284;2022-09-01T15:19:51;3.53;;;2.35;;
22234;SDS011;11286;45.596;5.284;2022-09-01T15:22:16;2.50;;;2.30;;
22234;SDS011;11286;45.596;5.284;2022-09-01T15:24:42;4.15;;;2.30;;
22234;SDS011;11286;45.596;5.284;2022-09-01T15:27:08;2.30;;;2.10;;
22234;SDS011;11286;45.596;5.284;2022-09-01T15:29:35;2.97;;;2.20;;
22234;SDS011;11286;45.596;5.284;2022-09-01T15:32:10;2.60;;;2.42;;
22234;SDS011;11286;45.596;5.284;2022-09-01T15:34:36;2.30;;;2.10;;
22234;SDS011;11286;45.596;5.284;2022-09-01T15:37:02;2.13;;;2.03;;
22234;SDS011;11286;45.596;5.284;2022-09-01T15:39:29;2.60;;;2.13;;
22234;SDS011;11286;45.596;5.284;2022-09-01T15:41:55;3.58;;;2.20;;
22234;SDS011;11286;45.596;5.284;2022-09-01T15:44:21;2.25;;;2.08;;
22234;SDS011;11286;45.596;5.284;2022-09-01T15:46:47;3.00;;;2.10;;
22234;SDS011;11286;45.596;5.284;2022-09-01T15:49:12;2.10;;;2.00;;
22234;SDS011;11286;45.596;5.284;2022-09-01T15:51:39;4.18;;;2.08;;
22234;SDS011;11286;45.596;5.284;2022-09-01T15:54:11;2.20;;;2.00;;
22234;SDS011;11286;45.596;5.284;2022-09-01T15:56:38;2.15;;;2.00;;
22234;SDS011;11286;45.596;5.284;2022-09-01T15:59:04;2.67;;;1.85;;
22234;SDS011;11286;45.596;5.284;2022-09-01T16:01:33;1.90;;;1.80;;
22234;SDS011;11286;45.596;5.284;2022-09-01T16:04:00;1.92;;;1.83;;
22234;SDS011;11286;45.596;5.284;2022-09-01T16:06:27;2.22;;;2.10;;
22234;SDS011;11286;45.596;5.284;2022-09-01T16:08:53;2.75;;;2.17;;
22234;SDS011;11286;45.596;5.284;2022-09-01T16:11:20;2.03;;;1.92;;
22234;SDS011;11286;45.596;5.284;2022-09-01T16:13:47;2.03;;;1.90;;
22234;SDS011;11286;45.596;5.284;2022-09-01T16:24:38;3.92;;;2.00;;
22234;SDS011;11286;45.596;5.284;2022-09-01T16:27:10;2.30;;;2.10;;
22234;SDS011;11286;45.596;5.284;2022-09-01T16:29:44;2.20;;;2.05;;
22234;SDS011;11286;45.596;5.284;2022-09-01T16:32:17;2.40;;;2.20;;
22234;SDS011;11286;45.596;5.284;2022-09-01T16:34:45;2.28;;;2.13;;